sensor_id;sensor_type;location;lat;lon;timestamp;temperature;humidity
25732;DHT22;13585;50.864;4.406;2023-02-28T00:00:07;15.10;59.60
25732;DHT22;13585;50.864;4.406;2023-02-28T00:02:37;15.10;59.60
25732;DHT22;13585;50.864;4.406;2023-02-28T00:05:04;15.10;59.60
25732;DHT22;13585;50.864;4.406;2023-02-28T00:07:30;15.10;59.60
25732;DHT22;13585;50.864;4.406;2023-02-28T00:09:56;15.10;59.50
25732;DHT22;13585;50.864;4.406;2023-02-28T00:12:22;15.10;59.50
25732;DHT22;13585;50.864;4.406;2023-02-28T00:14:48;15.10;59.50
25732;DHT22;13585;50.864;4.406;2023-02-28T00:17:14;15.10;59.50
25732;DHT22;13585;50.864;4.406;2023-02-28T00:19:39;15.10;59.40
25732;DHT22;13585;50.864;4.406;2023-02-28T00:22:05;15.10;59.40
25732;DHT22;13585;50.864;4.406;2023-02-28T00:24:31;15.10;59.40
25732;DHT22;13585;50.864;4.406;2023-02-28T00:26:56;15.10;59.40
25732;DHT22;13585;50.864;4.406;2023-02-28T00:29:22;15.10;59.40
25732;DHT22;13585;50.864;4.406;2023-02-28T00:31:48;15.10;59.30
25732;DHT22;13585;50.864;4.406;2023-02-28T00:34:14;15.10;59.30
25732;DHT22;13585;50.864;4.406;2023-02-28T00:36:39;15.10;59.30
25732;DHT22;13585;50.864;4.406;2023-02-28T00:39:09;15.10;59.30
25732;DHT22;13585;50.864;4.406;2023-02-28T00:41:34;15.10;59.30
25732;DHT22;13585;50.864;4.406;2023-02-28T00:44:00;15.10;59.30
25732;DHT22;13585;50.864;4.406;2023-02-28T00:46:25;15.10;59.30
25732;DHT22;13585;50.864;4.406;2023-02-28T00:48:51;15.10;59.30
25732;DHT22;13585;50.864;4.406;2023-02-28T00:51:16;15.10;59.20
25732;DHT22;13585;50.864;4.406;2023-02-28T00:53:42;15.10;59.20
25732;DHT22;13585;50.864;4.406;2023-02-28T00:56:08;15.10;59.20
25732;DHT22;13585;50.864;4.406;2023-02-28T00:58:33;15.10;59.20
25732;DHT22;13585;50.864;4.406;2023-02-28T01:00:59;15.00;59.30
25732;DHT22;13585;50.864;4.406;2023-02-28T01:03:25;15.00;59.10
25732;DHT22;13585;50.864;4.406;2023-02-28T01:05:51;15.00;59.10
25732;DHT22;13585;50.864;4.406;2023-02-28T01:08:18;15.00;59.10
25732;DHT22;13585;50.864;4.406;2023-02-28T01:10:44;15.10;59.20
25732;DHT22;13585;50.864;4.406;2023-02-28T01:13:11;15.00;59.10
25732;DHT22;13585;50.864;4.406;2023-02-28T01:15:37;15.00;59.10
25732;DHT22;13585;50.864;4.406;2023-02-28T01:18:03;15.00;59.10
25732;DHT22;13585;50.864;4.406;2023-02-28T01:20:28;15.00;59.10
25732;DHT22;13585;50.864;4.406;2023-02-28T01:22:54;15.00;59.10
25732;DHT22;13585;50.864;4.406;2023-02-28T01:25:20;15.00;59.00
25732;DHT22;13585;50.864;4.406;2023-02-28T01:27:45;15.00;59.00
25732;DHT22;13585;50.864;4.406;2023-02-28T01:30:11;15.00;59.00
25732;DHT22;13585;50.864;4.406;2023-02-28T01:32:37;15.00;58.90
25732;DHT22;13585;50.864;4.406;2023-02-28T01:35:03;15.00;58.90
25732;DHT22;13585;50.864;4.406;2023-02-28T01:37:28;15.00;58.90
25732;DHT22;13585;50.864;4.406;2023-02-28T01:39:54;15.00;58.90
25732;DHT22;13585;50.864;4.406;2023-02-28T01:42:20;15.00;58.90
25732;DHT22;13585;50.864;4.406;2023-02-28T01:47:42;15.00;58.90
25732;DHT22;13585;50.864;4.406;2023-02-28T01:50:16;15.00;58.80
25732;DHT22;13585;50.864;4.406;2023-02-28T01:52:44;15.00;58.80
25732;DHT22;13585;50.864;4.406;2023-02-28T01:55:11;15.00;59.40
25732;DHT22;13585;50.864;4.406;2023-02-28T01:57:58;14.90;58.80
25732;DHT22;13585;50.864;4.406;2023-02-28T02:00:26;15.00;58.80
25732;DHT22;13585;50.864;4.406;2023-02-28T02:03:07;15.00;58.80
25732;DHT22;13585;50.864;4.406;2023-02-28T02:05:37;14.90;58.80
25732;DHT22;13585;50.864;4.406;2023-02-28T02:08:06;15.00;58.80
25732;DHT22;13585;50.864;4.406;2023-02-28T02:10:41;14.90;58.80
25732;DHT22;13585;50.864;4.406;2023-02-28T02:13:19;14.90;58.70
25732;DHT22;13585;50.864;4.406;2023-02-28T02:16:19;15.00;58.70
25732;DHT22;13585;50.864;4.406;2023-02-28T02:18:54;14.90;58.70
25732;DHT22;13585;50.864;4.406;2023-02-28T02:38:35;14.90;58.60
25732;DHT22;13585;50.864;4.406;2023-02-28T02:41:23;14.80;58.70
25732;DHT22;13585;50.864;4.406;2023-02-28T02:43:53;14.90;58.70
25732;DHT22;13585;50.864;4.406;2023-02-28T02:48:52;14.90;58.60
25732;DHT22;13585;50.864;4.406;2023-02-28T02:51:22;14.80;58.60
25732;DHT22;13585;50.864;4.406;2023-02-28T02:54:17;14.80;58.60
25732;DHT22;13585;50.864;4.406;2023-02-28T02:56:46;14.90;58.60
25732;DHT22;13585;50.864;4.406;2023-02-28T02:59:15;14.80;58.50
25732;DHT22;13585;50.864;4.406;2023-02-28T03:01:48;14.90;58.60
25732;DHT22;13585;50.864;4.406;2023-02-28T03:04:26;14.90;58.60
25732;DHT22;13585;50.864;4.406;2023-02-28T03:06:53;14.80;58.50
25732;DHT22;13585;50.864;4.406;2023-02-28T03:09:23;14.80;58.50
25732;DHT22;13585;50.864;4.406;2023-02-28T03:11:51;14.80;58.50
25732;DHT22;13585;50.864;4.406;2023-02-28T03:25:56;14.80;58.50
25732;DHT22;13585;50.864;4.406;2023-02-28T03:28:33;14.80;58.50
25732;DHT22;13585;50.864;4.406;2023-02-28T03:31:03;14.80;58.40
25732;DHT22;13585;50.864;4.406;2023-02-28T03:33:41;14.80;58.40
25732;DHT22;13585;50.864;4.406;2023-02-28T03:36:16;14.80;58.50
25732;DHT22;13585;50.864;4.406;2023-02-28T03:38:48;14.90;58.50
25732;DHT22;13585;50.864;4.406;2023-02-28T03:41:42;14.80;58.40
25732;DHT22;13585;50.864;4.406;2023-02-28T03:44:14;14.80;58.40
25732;DHT22;13585;50.864;4.406;2023-02-28T03:47:03;14.80;58.30
25732;DHT22;13585;50.864;4.406;2023-02-28T03:49:52;14.80;58.30
25732;DHT22;13585;50.864;4.406;2023-02-28T03:52:22;14.80;58.30
25732;DHT22;13585;50.864;4.406;2023-02-28T03:54:53;14.80;58.20
25732;DHT22;13585;50.864;4.406;2023-02-28T03:57:32;14.70;58.20
25732;DHT22;13585;50.864;4.406;2023-02-28T04:00:10;14.70;58.20
25732;DHT22;13585;50.864;4.406;2023-02-28T04:02:37;14.80;58.20
25732;DHT22;13585;50.864;4.406;2023-02-28T04:05:05;14.80;58.20
25732;DHT22;13585;50.864;4.406;2023-02-28T04:07:31;14.80;58.20
25732;DHT22;13585;50.864;4.406;2023-02-28T04:09:57;14.70;58.10
25732;DHT22;13585;50.864;4.406;2023-02-28T04:12:23;14.70;58.10
25732;DHT22;13585;50.864;4.406;2023-02-28T04:14:49;14.70;58.10
25732;DHT22;13585;50.864;4.406;2023-02-28T04:17:16;14.80;58.20
25732;DHT22;13585;50.864;4.406;2023-02-28T04:19:42;14.70;58.00
25732;DHT22;13585;50.864;4.406;2023-02-28T04:22:08;14.70;58.00
25732;DHT22;13585;50.864;4.406;2023-02-28T04:24:35;14.70;58.00
25732;DHT22;13585;50.864;4.406;2023-02-28T04:27:01;14.70;58.00
25732;DHT22;13585;50.864;4.406;2023-02-28T04:29:31;14.70;58.00
25732;DHT22;13585;50.864;4.406;2023-02-28T04:31:59;14.70;58.00
25732;DHT22;13585;50.864;4.406;2023-02-28T04:34:26;14.70;57.90
25732;DHT22;13585;50.864;4.406;2023-02-28T04:36:52;14.70;58.00
25732;DHT22;13585;50.864;4.406;2023-02-28T04:39:22;14.70;58.00
25732;DHT22;13585;50.864;4.406;2023-02-28T04:41:48;14.70;57.90
25732;DHT22;13585;50.864;4.406;2023-02-28T04:44:15;14.70;57.90
25732;DHT22;13585;50.864;4.406;2023-02-28T04:46:41;14.70;57.90
25732;DHT22;13585;50.864;4.406;2023-02-28T04:49:08;14.70;57.90
25732;DHT22;13585;50.864;4.406;2023-02-28T04:51:33;14.70;57.90
25732;DHT22;13585;50.864;4.406;2023-02-28T04:53:59;14.70;57.90
25732;DHT22;13585;50.864;4.406;2023-02-28T04:56:25;14.70;58.50
25732;DHT22;13585;50.864;4.406;2023-02-28T04:58:50;14.70;57.90
25732;DHT22;13585;50.864;4.406;2023-02-28T05:03:50;14.70;57.80
25732;DHT22;13585;50.864;4.406;2023-02-28T05:06:17;14.70;57.70
25732;DHT22;13585;50.864;4.406;2023-02-28T05:08:43;14.70;57.80
25732;DHT22;13585;50.864;4.406;2023-02-28T05:11:26;14.70;57.80
25732;DHT22;13585;50.864;4.406;2023-02-28T05:13:53;14.60;57.70
25732;DHT22;13585;50.864;4.406;2023-02-28T05:16:19;14.70;57.70
25732;DHT22;13585;50.864;4.406;2023-02-28T05:18:46;14.70;57.60
25732;DHT22;13585;50.864;4.406;2023-02-28T05:21:25;14.70;57.50
25732;DHT22;13585;50.864;4.406;2023-02-28T05:23:52;14.60;57.40
25732;DHT22;13585;50.864;4.406;2023-02-28T05:26:19;14.60;57.20
25732;DHT22;13585;50.864;4.406;2023-02-28T05:28:44;14.70;57.20
25732;DHT22;13585;50.864;4.406;2023-02-28T05:31:11;14.60;57.00
25732;DHT22;13585;50.864;4.406;2023-02-28T05:33:36;14.70;57.00
25732;DHT22;13585;50.864;4.406;2023-02-28T05:36:03;14.70;56.90
25732;DHT22;13585;50.864;4.406;2023-02-28T05:38:28;14.60;56.80
25732;DHT22;13585;50.864;4.406;2023-02-28T05:40:54;14.60;56.70
25732;DHT22;13585;50.864;4.406;2023-02-28T05:43:20;14.70;56.70
25732;DHT22;13585;50.864;4.406;2023-02-28T05:45:45;14.70;56.60
25732;DHT22;13585;50.864;4.406;2023-02-28T05:48:11;14.70;56.60
25732;DHT22;13585;50.864;4.406;2023-02-28T05:50:37;14.70;56.60
25732;DHT22;13585;50.864;4.406;2023-02-28T05:53:03;14.70;56.50
25732;DHT22;13585;50.864;4.406;2023-02-28T05:55:29;14.70;56.50
25732;DHT22;13585;50.864;4.406;2023-02-28T05:57:55;14.70;56.50
25732;DHT22;13585;50.864;4.406;2023-02-28T06:00:21;14.70;56.50
25732;DHT22;13585;50.864;4.406;2023-02-28T06:02:47;14.70;56.40
25732;DHT22;13585;50.864;4.406;2023-02-28T06:05:16;14.70;56.40
25732;DHT22;13585;50.864;4.406;2023-02-28T06:07:42;14.70;56.40
25732;DHT22;13585;50.864;4.406;2023-02-28T06:10:11;14.70;56.40
25732;DHT22;13585;50.864;4.406;2023-02-28T06:12:37;14.70;56.40
25732;DHT22;13585;50.864;4.406;2023-02-28T06:15:03;14.70;56.40
25732;DHT22;13585;50.864;4.406;2023-02-28T06:17:29;14.70;56.40
25732;DHT22;13585;50.864;4.406;2023-02-28T06:19:54;14.70;56.50
25732;DHT22;13585;50.864;4.406;2023-02-28T06:22:20;14.70;56.40
25732;DHT22;13585;50.864;4.406;2023-02-28T06:24:45;14.80;56.50
25732;DHT22;13585;50.864;4.406;2023-02-28T06:27:11;14.70;56.60
25732;DHT22;13585;50.864;4.406;2023-02-28T06:29:37;14.80;56.60
25732;DHT22;13585;50.864;4.406;2023-02-28T06:32:05;14.70;56.60
25732;DHT22;13585;50.864;4.406;2023-02-28T06:34:31;14.80;56.70
25732;DHT22;13585;50.864;4.406;2023-02-28T06:36:57;14.70;57.30
25732;DHT22;13585;50.864;4.406;2023-02-28T06:39:30;14.80;56.80
25732;DHT22;13585;50.864;4.406;2023-02-28T06:41:56;14.80;56.90
25732;DHT22;13585;50.864;4.406;2023-02-28T06:44:23;14.80;56.90
25732;DHT22;13585;50.864;4.406;2023-02-28T06:46:48;14.80;56.90
25732;DHT22;13585;50.864;4.406;2023-02-28T06:49:15;14.80;57.00
25732;DHT22;13585;50.864;4.406;2023-02-28T06:51:43;14.80;57.00
25732;DHT22;13585;50.864;4.406;2023-02-28T06:54:12;14.80;57.00
25732;DHT22;13585;50.864;4.406;2023-02-28T06:56:38;14.80;57.10
25732;DHT22;13585;50.864;4.406;2023-02-28T06:59:04;14.90;57.20
25732;DHT22;13585;50.864;4.406;2023-02-28T07:01:30;14.80;57.20
25732;DHT22;13585;50.864;4.406;2023-02-28T07:03:57;14.90;57.20
25732;DHT22;13585;50.864;4.406;2023-02-28T07:06:23;14.80;57.20
25732;DHT22;13585;50.864;4.406;2023-02-28T07:08:50;14.80;57.20
25732;DHT22;13585;50.864;4.406;2023-02-28T07:11:18;14.90;57.20
25732;DHT22;13585;50.864;4.406;2023-02-28T07:13:44;14.90;57.30
25732;DHT22;13585;50.864;4.406;2023-02-28T07:16:11;14.90;57.30
25732;DHT22;13585;50.864;4.406;2023-02-28T07:18:37;14.90;57.30
25732;DHT22;13585;50.864;4.406;2023-02-28T07:21:05;14.90;57.30
25732;DHT22;13585;50.864;4.406;2023-02-28T07:23:31;14.90;57.30
25732;DHT22;13585;50.864;4.406;2023-02-28T07:25:57;14.90;57.30
25732;DHT22;13585;50.864;4.406;2023-02-28T07:28:23;14.90;57.30
25732;DHT22;13585;50.864;4.406;2023-02-28T07:30:48;14.90;57.40
25732;DHT22;13585;50.864;4.406;2023-02-28T07:33:14;14.90;57.30
25732;DHT22;13585;50.864;4.406;2023-02-28T07:35:40;14.90;57.30
25732;DHT22;13585;50.864;4.406;2023-02-28T07:38:06;14.90;57.40
25732;DHT22;13585;50.864;4.406;2023-02-28T07:40:33;14.90;57.40
25732;DHT22;13585;50.864;4.406;2023-02-28T07:43:00;14.90;57.40
25732;DHT22;13585;50.864;4.406;2023-02-28T07:45:26;14.90;57.40
25732;DHT22;13585;50.864;4.406;2023-02-28T07:47:54;14.90;57.40
25732;DHT22;13585;50.864;4.406;2023-02-28T07:50:20;14.90;58.00
25732;DHT22;13585;50.864;4.406;2023-02-28T07:52:46;14.90;57.40
25732;DHT22;13585;50.864;4.406;2023-02-28T07:55:11;14.90;57.40
25732;DHT22;13585;50.864;4.406;2023-02-28T07:57:37;14.90;57.40
25732;DHT22;13585;50.864;4.406;2023-02-28T08:00:05;14.90;57.30
25732;DHT22;13585;50.864;4.406;2023-02-28T08:02:34;14.90;57.40
25732;DHT22;13585;50.864;4.406;2023-02-28T08:05:00;14.90;57.40
25732;DHT22;13585;50.864;4.406;2023-02-28T08:07:26;14.90;57.40
25732;DHT22;13585;50.864;4.406;2023-02-28T08:09:51;14.90;57.40
25732;DHT22;13585;50.864;4.406;2023-02-28T08:12:17;14.90;57.40
25732;DHT22;13585;50.864;4.406;2023-02-28T08:14:43;14.90;57.40
25732;DHT22;13585;50.864;4.406;2023-02-28T08:17:09;14.90;57.40
25732;DHT22;13585;50.864;4.406;2023-02-28T08:19:35;14.90;57.40
25732;DHT22;13585;50.864;4.406;2023-02-28T08:22:01;14.90;57.40
25732;DHT22;13585;50.864;4.406;2023-02-28T08:24:27;14.90;57.40
25732;DHT22;13585;50.864;4.406;2023-02-28T08:26:52;14.90;57.50
25732;DHT22;13585;50.864;4.406;2023-02-28T08:29:18;14.90;57.40
25732;DHT22;13585;50.864;4.406;2023-02-28T08:31:44;14.90;57.50
25732;DHT22;13585;50.864;4.406;2023-02-28T08:34:11;14.90;57.50
25732;DHT22;13585;50.864;4.406;2023-02-28T08:36:38;14.90;57.40
25732;DHT22;13585;50.864;4.406;2023-02-28T08:39:04;14.90;57.50
25732;DHT22;13585;50.864;4.406;2023-02-28T08:41:30;14.90;57.50
25732;DHT22;13585;50.864;4.406;2023-02-28T08:43:56;14.90;57.50
25732;DHT22;13585;50.864;4.406;2023-02-28T08:46:23;14.90;57.40
25732;DHT22;13585;50.864;4.406;2023-02-28T08:48:53;14.90;57.50
25732;DHT22;13585;50.864;4.406;2023-02-28T08:51:21;14.90;57.50
25732;DHT22;13585;50.864;4.406;2023-02-28T08:53:52;14.90;57.40
25732;DHT22;13585;50.864;4.406;2023-02-28T08:56:18;14.90;57.50
25732;DHT22;13585;50.864;4.406;2023-02-28T08:58:48;14.90;58.00
25732;DHT22;13585;50.864;4.406;2023-02-28T09:01:23;14.90;57.40
25732;DHT22;13585;50.864;4.406;2023-02-28T09:03:52;14.90;57.40
25732;DHT22;13585;50.864;4.406;2023-02-28T09:06:19;14.90;57.40
25732;DHT22;13585;50.864;4.406;2023-02-28T09:08:45;14.80;57.30
25732;DHT22;13585;50.864;4.406;2023-02-28T09:11:11;14.90;57.40
25732;DHT22;13585;50.864;4.406;2023-02-28T09:13:38;14.90;57.30
25732;DHT22;13585;50.864;4.406;2023-02-28T09:16:06;14.80;57.20
25732;DHT22;13585;50.864;4.406;2023-02-28T09:18:34;14.90;57.30
25732;DHT22;13585;50.864;4.406;2023-02-28T09:21:06;14.90;57.20
25732;DHT22;13585;50.864;4.406;2023-02-28T09:23:32;14.90;57.20
25732;DHT22;13585;50.864;4.406;2023-02-28T09:25:58;14.80;57.20
25732;DHT22;13585;50.864;4.406;2023-02-28T09:28:24;14.80;57.20
25732;DHT22;13585;50.864;4.406;2023-02-28T09:30:52;14.90;57.20
25732;DHT22;13585;50.864;4.406;2023-02-28T09:33:18;14.80;57.10
25732;DHT22;13585;50.864;4.406;2023-02-28T09:35:49;14.80;57.10
25732;DHT22;13585;50.864;4.406;2023-02-28T09:38:16;14.80;57.10
25732;DHT22;13585;50.864;4.406;2023-02-28T09:40:51;14.80;57.10
25732;DHT22;13585;50.864;4.406;2023-02-28T09:43:23;14.80;57.10
25732;DHT22;13585;50.864;4.406;2023-02-28T09:46:12;14.80;57.00
25732;DHT22;13585;50.864;4.406;2023-02-28T09:48:43;14.80;57.10
25732;DHT22;13585;50.864;4.406;2023-02-28T09:51:30;14.80;57.00
25732;DHT22;13585;50.864;4.406;2023-02-28T09:53:58;14.80;57.00
25732;DHT22;13585;50.864;4.406;2023-02-28T09:56:36;14.80;56.90
25732;DHT22;13585;50.864;4.406;2023-02-28T10:05:14;14.80;56.80
25732;DHT22;13585;50.864;4.406;2023-02-28T10:13:06;14.80;56.90
25732;DHT22;13585;50.864;4.406;2023-02-28T10:15:34;14.70;56.80
25732;DHT22;13585;50.864;4.406;2023-02-28T10:18:04;14.80;56.90
25732;DHT22;13585;50.864;4.406;2023-02-28T10:20:33;14.80;56.90
25732;DHT22;13585;50.864;4.406;2023-02-28T10:25:58;14.70;56.90
25732;DHT22;13585;50.864;4.406;2023-02-28T10:28:25;14.80;56.80
25732;DHT22;13585;50.864;4.406;2023-02-28T10:30:53;14.70;56.70
25732;DHT22;13585;50.864;4.406;2023-02-28T10:33:21;14.70;56.70
25732;DHT22;13585;50.864;4.406;2023-02-28T10:35:48;14.80;56.80
25732;DHT22;13585;50.864;4.406;2023-02-28T10:38:23;14.80;56.70
25732;DHT22;13585;50.864;4.406;2023-02-28T10:40:49;14.80;56.70
25732;DHT22;13585;50.864;4.406;2023-02-28T10:46:01;14.80;56.60
25732;DHT22;13585;50.864;4.406;2023-02-28T10:51:04;14.80;56.60
25732;DHT22;13585;50.864;4.406;2023-02-28T10:58:53;14.80;56.60
25732;DHT22;13585;50.864;4.406;2023-02-28T11:01:37;14.90;56.70
25732;DHT22;13585;50.864;4.406;2023-02-28T11:06:42;14.90;56.60
25732;DHT22;13585;50.864;4.406;2023-02-28T11:09:31;14.90;56.60
25732;DHT22;13585;50.864;4.406;2023-02-28T11:11:58;14.90;56.70
25732;DHT22;13585;50.864;4.406;2023-02-28T11:14:26;14.90;56.60
25732;DHT22;13585;50.864;4.406;2023-02-28T11:16:54;15.00;56.80
25732;DHT22;13585;50.864;4.406;2023-02-28T11:19:28;15.00;56.80
25732;DHT22;13585;50.864;4.406;2023-02-28T11:22:02;14.90;56.80
25732;DHT22;13585;50.864;4.406;2023-02-28T11:24:40;15.00;56.90
25732;DHT22;13585;50.864;4.406;2023-02-28T11:27:25;15.00;56.90
25732;DHT22;13585;50.864;4.406;2023-02-28T11:29:51;15.00;57.10
25732;DHT22;13585;50.864;4.406;2023-02-28T11:32:21;15.00;57.00
25732;DHT22;13585;50.864;4.406;2023-02-28T11:35:00;15.00;57.10
25732;DHT22;13585;50.864;4.406;2023-02-28T11:37:27;15.00;57.20
25732;DHT22;13585;50.864;4.406;2023-02-28T11:39:53;15.10;57.30
25732;DHT22;13585;50.864;4.406;2023-02-28T11:45:46;15.10;57.70
25732;DHT22;13585;50.864;4.406;2023-02-28T11:48:20;15.10;57.70
25732;DHT22;13585;50.864;4.406;2023-02-28T11:56:31;15.10;58.00
25732;DHT22;13585;50.864;4.406;2023-02-28T12:07:11;15.20;58.30
25732;DHT22;13585;50.864;4.406;2023-02-28T12:16:19;15.20;58.50
25732;DHT22;13585;50.864;4.406;2023-02-28T12:19:16;15.20;58.60
25732;DHT22;13585;50.864;4.406;2023-02-28T12:22:17;15.20;58.60
25732;DHT22;13585;50.864;4.406;2023-02-28T12:27:39;15.30;58.80
25732;DHT22;13585;50.864;4.406;2023-02-28T12:30:30;15.30;58.80
25732;DHT22;13585;50.864;4.406;2023-02-28T12:40:50;15.40;59.10
25732;DHT22;13585;50.864;4.406;2023-02-28T12:43:19;15.40;59.10
25732;DHT22;13585;50.864;4.406;2023-02-28T12:46:09;15.30;59.70
25732;DHT22;13585;50.864;4.406;2023-02-28T12:48:43;15.30;59.20
25732;DHT22;13585;50.864;4.406;2023-02-28T12:51:11;15.40;59.20
25732;DHT22;13585;50.864;4.406;2023-02-28T12:56:35;15.40;59.30
25732;DHT22;13585;50.864;4.406;2023-02-28T12:59:20;15.40;59.30
25732;DHT22;13585;50.864;4.406;2023-02-28T13:02:19;15.50;59.30
25732;DHT22;13585;50.864;4.406;2023-02-28T13:05:07;15.50;59.30
25732;DHT22;13585;50.864;4.406;2023-02-28T13:10:24;15.50;59.30
25732;DHT22;13585;50.864;4.406;2023-02-28T13:12:52;15.60;59.30
25732;DHT22;13585;50.864;4.406;2023-02-28T13:15:26;15.60;59.40
25732;DHT22;13585;50.864;4.406;2023-02-28T13:17:56;15.60;59.40
25732;DHT22;13585;50.864;4.406;2023-02-28T13:20:32;15.60;59.40
25732;DHT22;13585;50.864;4.406;2023-02-28T13:23:14;15.70;59.40
25732;DHT22;13585;50.864;4.406;2023-02-28T13:25:53;15.70;59.40
25732;DHT22;13585;50.864;4.406;2023-02-28T13:31:32;15.70;59.30
25732;DHT22;13585;50.864;4.406;2023-02-28T13:34:13;15.80;59.30
25732;DHT22;13585;50.864;4.406;2023-02-28T13:36:50;15.80;59.30
25732;DHT22;13585;50.864;4.406;2023-02-28T13:45:25;15.90;59.10
25732;DHT22;13585;50.864;4.406;2023-02-28T13:53:38;16.00;59.00
25732;DHT22;13585;50.864;4.406;2023-02-28T13:56:26;16.10;59.00
25732;DHT22;13585;50.864;4.406;2023-02-28T13:59:19;16.10;58.80
25732;DHT22;13585;50.864;4.406;2023-02-28T14:05:13;16.10;58.80
25732;DHT22;13585;50.864;4.406;2023-02-28T14:08:13;16.20;58.80
25732;DHT22;13585;50.864;4.406;2023-02-28T14:11:08;16.20;58.90
25732;DHT22;13585;50.864;4.406;2023-02-28T14:13:45;16.20;58.80
25732;DHT22;13585;50.864;4.406;2023-02-28T14:16:17;16.20;58.90
25732;DHT22;13585;50.864;4.406;2023-02-28T14:18:54;16.20;58.80
25732;DHT22;13585;50.864;4.406;2023-02-28T14:21:25;16.20;58.80
25732;DHT22;13585;50.864;4.406;2023-02-28T14:24:13;16.20;58.80
25732;DHT22;13585;50.864;4.406;2023-02-28T14:29:53;16.20;58.80
25732;DHT22;13585;50.864;4.406;2023-02-28T14:32:27;16.10;59.00
25732;DHT22;13585;50.864;4.406;2023-02-28T14:37:39;16.10;59.00
25732;DHT22;13585;50.864;4.406;2023-02-28T14:43:01;16.10;59.00
25732;DHT22;13585;50.864;4.406;2023-02-28T14:45:30;16.00;59.00
25732;DHT22;13585;50.864;4.406;2023-02-28T14:47:57;16.10;59.60
25732;DHT22;13585;50.864;4.406;2023-02-28T14:50:31;16.10;59.00
25732;DHT22;13585;50.864;4.406;2023-02-28T14:52:57;16.00;58.90
25732;DHT22;13585;50.864;4.406;2023-02-28T14:55:33;16.00;58.90
25732;DHT22;13585;50.864;4.406;2023-02-28T14:58:02;16.00;59.00
25732;DHT22;13585;50.864;4.406;2023-02-28T15:00:31;16.00;58.90
25732;DHT22;13585;50.864;4.406;2023-02-28T15:03:01;16.00;58.90
25732;DHT22;13585;50.864;4.406;2023-02-28T15:05:42;16.00;58.90
25732;DHT22;13585;50.864;4.406;2023-02-28T15:08:16;16.00;58.90
25732;DHT22;13585;50.864;4.406;2023-02-28T15:13:17;15.90;58.90
25732;DHT22;13585;50.864;4.406;2023-02-28T15:15:55;16.00;58.80
25732;DHT22;13585;50.864;4.406;2023-02-28T15:21:11;15.90;58.80
25732;DHT22;13585;50.864;4.406;2023-02-28T15:23:38;16.00;58.80
25732;DHT22;13585;50.864;4.406;2023-02-28T15:26:06;15.90;58.80
25732;DHT22;13585;50.864;4.406;2023-02-28T15:28:32;15.90;58.70
25732;DHT22;13585;50.864;4.406;2023-02-28T15:31:01;16.00;58.70
25732;DHT22;13585;50.864;4.406;2023-02-28T15:33:31;15.90;58.70
25732;DHT22;13585;50.864;4.406;2023-02-28T15:36:28;15.90;58.70
25732;DHT22;13585;50.864;4.406;2023-02-28T15:38:54;15.90;58.70
25732;DHT22;13585;50.864;4.406;2023-02-28T15:41:30;15.90;58.60
25732;DHT22;13585;50.864;4.406;2023-02-28T15:46:44;15.90;58.60
25732;DHT22;13585;50.864;4.406;2023-02-28T15:49:19;15.90;58.50
25732;DHT22;13585;50.864;4.406;2023-02-28T15:51:46;15.90;58.50
25732;DHT22;13585;50.864;4.406;2023-02-28T15:54:19;15.90;58.50
25732;DHT22;13585;50.864;4.406;2023-02-28T15:56:49;15.90;58.50
25732;DHT22;13585;50.864;4.406;2023-02-28T15:59:28;15.90;58.50
25732;DHT22;13585;50.864;4.406;2023-02-28T16:02:18;15.90;58.40
25732;DHT22;13585;50.864;4.406;2023-02-28T16:05:24;15.90;58.40
25732;DHT22;13585;50.864;4.406;2023-02-28T16:08:06;15.90;58.40
25732;DHT22;13585;50.864;4.406;2023-02-28T16:10:35;15.90;58.20
25732;DHT22;13585;50.864;4.406;2023-02-28T16:13:03;15.90;58.20
25732;DHT22;13585;50.864;4.406;2023-02-28T16:15:32;15.90;58.20
25732;DHT22;13585;50.864;4.406;2023-02-28T16:18:00;15.90;58.90
25732;DHT22;13585;50.864;4.406;2023-02-28T16:20:28;15.90;58.20
25732;DHT22;13585;50.864;4.406;2023-02-28T16:22:57;15.90;58.20
25732;DHT22;13585;50.864;4.406;2023-02-28T16:25:40;15.80;58.10
25732;DHT22;13585;50.864;4.406;2023-02-28T16:28:17;15.90;58.80
25732;DHT22;13585;50.864;4.406;2023-02-28T16:30:43;15.90;58.10
25732;DHT22;13585;50.864;4.406;2023-02-28T16:33:09;15.90;58.10
25732;DHT22;13585;50.864;4.406;2023-02-28T16:35:35;15.90;58.10
25732;DHT22;13585;50.864;4.406;2023-02-28T16:38:00;15.80;58.00
25732;DHT22;13585;50.864;4.406;2023-02-28T16:40:27;15.90;58.10
25732;DHT22;13585;50.864;4.406;2023-02-28T16:42:58;15.80;58.10
25732;DHT22;13585;50.864;4.406;2023-02-28T16:45:27;15.80;58.60
25732;DHT22;13585;50.864;4.406;2023-02-28T16:47:53;15.80;58.00
25732;DHT22;13585;50.864;4.406;2023-02-28T16:50:28;15.80;58.00
25732;DHT22;13585;50.864;4.406;2023-02-28T16:52:55;15.80;58.00
25732;DHT22;13585;50.864;4.406;2023-02-28T16:55:23;15.80;58.00
25732;DHT22;13585;50.864;4.406;2023-02-28T16:57:54;15.80;57.90
25732;DHT22;13585;50.864;4.406;2023-02-28T17:00:20;15.80;58.00
25732;DHT22;13585;50.864;4.406;2023-02-28T17:02:46;15.80;58.00
25732;DHT22;13585;50.864;4.406;2023-02-28T17:05:12;15.80;58.00
25732;DHT22;13585;50.864;4.406;2023-02-28T17:07:41;15.80;58.00
25732;DHT22;13585;50.864;4.406;2023-02-28T17:10:15;15.80;58.00
25732;DHT22;13585;50.864;4.406;2023-02-28T17:12:41;15.80;58.00
25732;DHT22;13585;50.864;4.406;2023-02-28T17:15:07;15.70;57.90
25732;DHT22;13585;50.864;4.406;2023-02-28T17:17:33;15.70;58.00
25732;DHT22;13585;50.864;4.406;2023-02-28T17:20:01;15.70;57.90
25732;DHT22;13585;50.864;4.406;2023-02-28T17:22:26;15.70;57.90
25732;DHT22;13585;50.864;4.406;2023-02-28T17:24:52;15.70;57.90
25732;DHT22;13585;50.864;4.406;2023-02-28T17:27:21;15.70;57.90
25732;DHT22;13585;50.864;4.406;2023-02-28T17:30:00;15.70;57.90
25732;DHT22;13585;50.864;4.406;2023-02-28T17:32:26;15.70;58.00
25732;DHT22;13585;50.864;4.406;2023-02-28T17:34:55;15.70;58.00
25732;DHT22;13585;50.864;4.406;2023-02-28T17:37:24;15.70;58.10
25732;DHT22;13585;50.864;4.406;2023-02-28T17:40:18;15.70;58.20
25732;DHT22;13585;50.864;4.406;2023-02-28T17:42:58;15.70;58.30
25732;DHT22;13585;50.864;4.406;2023-02-28T17:45:33;15.70;58.40
25732;DHT22;13585;50.864;4.406;2023-02-28T17:48:04;15.70;58.40
25732;DHT22;13585;50.864;4.406;2023-02-28T17:50:35;15.70;58.50
25732;DHT22;13585;50.864;4.406;2023-02-28T17:53:08;15.60;58.50
25732;DHT22;13585;50.864;4.406;2023-02-28T17:55:44;15.70;58.50
25732;DHT22;13585;50.864;4.406;2023-02-28T17:58:11;15.60;58.60
25732;DHT22;13585;50.864;4.406;2023-02-28T18:00:38;15.60;58.60
25732;DHT22;13585;50.864;4.406;2023-02-28T18:03:04;15.60;58.70
25732;DHT22;13585;50.864;4.406;2023-02-28T18:05:30;15.60;58.80
25732;DHT22;13585;50.864;4.406;2023-02-28T18:07:56;15.60;59.00